Аэропорт: им. Гейдара Алиева. Баку

ICAO: UBBB

METAR:
2021-04-21 19:30:00
UBBB 211930Z 34016KT CAVOK 17/09 Q1018 R88/CLRD// NOSIG
METAR:
2021-04-21 17:19:00
TAF UBBB 211719Z 2118/2218 33022G32KT 9999 SCT040 TX19/2211Z TN11/2202Z PROB40 TEMPO 2118/2124 -TSRA BKN040CB TEMPO 2122/2206 35016G26KT SCT012 SCT040CB TEMPO 2206/2218 36026G36KT -SHRA BKN040CB